createdAt,value
2023-04-22T00:02:01.872Z,12.43
2023-04-22T00:04:29.091Z,12.37
2023-04-22T00:06:56.662Z,12.30
2023-04-22T00:09:24.017Z,12.24
2023-04-22T00:11:50.599Z,12.18
2023-04-22T00:14:17.198Z,12.11
2023-04-22T00:16:43.853Z,12.03
2023-04-22T00:19:10.484Z,11.95
2023-04-22T00:21:37.056Z,11.88
2023-04-22T00:24:03.687Z,11.82
2023-04-22T00:26:30.263Z,11.78
2023-04-22T00:28:57.295Z,11.73
2023-04-22T00:31:23.879Z,11.69
2023-04-22T00:33:50.523Z,11.63
2023-04-22T00:36:17.080Z,11.57
2023-04-22T00:38:50.001Z,11.49
2023-04-22T00:41:17.014Z,11.43
2023-04-22T00:43:43.974Z,11.40
2023-04-22T00:46:10.574Z,11.37
2023-04-22T00:48:41.313Z,11.31
2023-04-22T00:51:07.988Z,11.30
2023-04-22T00:53:34.557Z,11.26
2023-04-22T00:56:01.205Z,11.23
2023-04-22T00:58:29.851Z,11.19
2023-04-22T01:00:56.849Z,11.16
2023-04-22T01:03:24.428Z,11.14
2023-04-22T01:05:51.262Z,11.12
2023-04-22T01:08:17.890Z,11.09
2023-04-22T01:10:44.449Z,11.08
2023-04-22T01:13:11.099Z,11.05
2023-04-22T01:15:37.974Z,11.01
2023-04-22T01:18:04.814Z,10.99
2023-04-22T01:20:31.909Z,10.95
2023-04-22T01:23:03.139Z,10.87
2023-04-22T01:25:29.882Z,10.83
2023-04-22T01:27:57.014Z,10.78
2023-04-22T01:30:23.633Z,10.73
2023-04-22T01:32:50.701Z,10.71
2023-04-22T01:35:17.264Z,10.70
2023-04-22T01:37:44.574Z,10.69
2023-04-22T01:40:11.719Z,10.66
2023-04-22T01:42:39.085Z,10.64
2023-04-22T01:45:06.107Z,10.63
2023-04-22T01:47:32.626Z,10.62
2023-04-22T01:49:59.141Z,10.59
2023-04-22T01:52:27.679Z,10.57
2023-04-22T01:54:55.151Z,10.55
2023-04-22T01:57:21.664Z,10.52
2023-04-22T01:59:48.175Z,10.51
2023-04-22T02:02:14.804Z,10.52
2023-04-22T02:04:41.380Z,10.53
2023-04-22T02:07:07.968Z,10.55
2023-04-22T02:09:34.864Z,10.57
2023-04-22T02:12:01.638Z,10.59
2023-04-22T02:14:28.249Z,10.61
2023-04-22T02:16:54.835Z,10.62
2023-04-22T02:19:21.426Z,10.65
2023-04-22T02:21:47.994Z,10.70
2023-04-22T02:24:14.654Z,10.72
2023-04-22T02:26:41.553Z,10.73
2023-04-22T02:29:08.055Z,10.74
2023-04-22T02:31:34.688Z,10.77
2023-04-22T02:34:01.270Z,10.79
2023-04-22T02:36:28.730Z,10.80
2023-04-22T02:38:55.603Z,10.79
2023-04-22T02:41:22.183Z,10.80
2023-04-22T02:43:48.936Z,10.83
2023-04-22T02:46:18.806Z,10.85
2023-04-22T02:48:45.424Z,10.85
2023-04-22T02:51:12.094Z,10.84
2023-04-22T02:53:38.643Z,10.82
2023-04-22T02:56:05.760Z,10.80
2023-04-22T02:58:32.395Z,10.78
2023-04-22T03:00:59.158Z,10.77
2023-04-22T03:03:26.669Z,10.77
2023-04-22T03:05:53.410Z,10.75
2023-04-22T03:08:20.383Z,10.71
2023-04-22T03:10:46.911Z,10.67
2023-04-22T03:13:14.354Z,10.64
2023-04-22T03:15:41.498Z,10.64
2023-04-22T03:18:08.724Z,10.65
2023-04-22T03:20:36.117Z,10.68
2023-04-22T03:23:02.756Z,10.72
2023-04-22T03:25:29.366Z,10.72
2023-04-22T03:27:56.047Z,10.73
2023-04-22T03:30:22.794Z,10.70
2023-04-22T03:32:49.441Z,10.72
2023-04-22T03:35:16.216Z,10.71
2023-04-22T03:37:42.863Z,10.70
2023-04-22T03:40:10.149Z,10.68
2023-04-22T03:42:36.640Z,10.67
2023-04-22T03:45:03.654Z,10.63
2023-04-22T03:47:30.360Z,10.60
2023-04-22T03:49:57.051Z,10.58
2023-04-22T03:52:23.615Z,10.54
2023-04-22T03:54:50.264Z,10.51
2023-04-22T03:57:16.822Z,10.46
2023-04-22T03:59:43.334Z,10.45
2023-04-22T04:02:09.912Z,10.43
2023-04-22T04:04:37.082Z,10.42
2023-04-22T04:07:04.030Z,10.38
2023-04-22T04:09:30.642Z,10.33
2023-04-22T04:11:58.144Z,10.28
2023-04-22T04:14:24.930Z,10.23
2023-04-22T04:16:51.522Z,10.18
2023-04-22T04:19:18.115Z,10.12
2023-04-22T04:21:45.437Z,10.10
2023-04-22T04:24:12.062Z,10.07
2023-04-22T04:26:38.819Z,10.06
2023-04-22T04:29:06.357Z,10.05
2023-04-22T04:31:34.055Z,10.06
2023-04-22T04:34:00.955Z,10.05
2023-04-22T04:36:29.063Z,10.02
2023-04-22T04:38:56.448Z,10.03
2023-04-22T04:41:23.470Z,10.02
2023-04-22T04:43:50.449Z,10.04
2023-04-22T04:46:16.969Z,10.06
2023-04-22T04:48:43.937Z,10.10
2023-04-22T04:51:11.693Z,10.08
2023-04-22T04:53:38.302Z,10.21
2023-04-22T04:56:05.147Z,10.66
2023-04-22T04:58:31.724Z,11.06
2023-04-22T05:00:58.280Z,11.40
2023-04-22T05:03:24.945Z,11.69
2023-04-22T05:05:51.821Z,11.89
2023-04-22T05:08:18.360Z,12.13
2023-04-22T05:10:45.201Z,12.25
2023-04-22T05:13:11.707Z,12.21
2023-04-22T05:15:38.320Z,12.12
2023-04-22T05:18:06.365Z,12.02
2023-04-22T05:20:35.387Z,11.93
2023-04-22T05:23:02.698Z,11.88
2023-04-22T05:25:29.289Z,11.80
2023-04-22T05:27:55.831Z,11.73
2023-04-22T05:30:22.421Z,11.88
2023-04-22T05:32:49.150Z,12.00
2023-04-22T05:35:15.786Z,12.09
2023-04-22T05:37:42.308Z,12.14
2023-04-22T05:40:09.446Z,12.17
2023-04-22T05:42:36.005Z,12.23
2023-04-22T05:45:02.537Z,12.33
2023-04-22T05:47:30.319Z,12.42
2023-04-22T05:49:56.959Z,12.57
2023-04-22T05:52:23.470Z,12.73
2023-04-22T05:54:50.053Z,12.80
2023-04-22T05:57:16.702Z,12.83
2023-04-22T05:59:43.435Z,12.85
2023-04-22T06:02:10.368Z,12.89
2023-04-22T06:04:37.945Z,13.02
2023-04-22T06:07:04.916Z,13.03
2023-04-22T06:09:31.513Z,13.04
2023-04-22T06:11:58.266Z,13.08
2023-04-22T06:14:24.825Z,13.12
2023-04-22T06:16:52.884Z,13.19
2023-04-22T06:19:19.862Z,13.29
2023-04-22T06:21:46.424Z,13.37
2023-04-22T06:24:13.024Z,13.47
2023-04-22T06:26:39.641Z,13.56
2023-04-22T06:29:06.200Z,13.63
2023-04-22T06:31:33.111Z,13.70
2023-04-22T06:33:59.657Z,13.77
2023-04-22T06:36:30.276Z,13.84
2023-04-22T06:38:57.234Z,13.88
2023-04-22T06:41:23.846Z,13.95
2023-04-22T06:43:50.526Z,14.05
2023-04-22T06:46:17.793Z,14.13
2023-04-22T06:48:44.389Z,14.17
2023-04-22T06:51:10.981Z,14.25
2023-04-22T06:53:37.570Z,14.30
2023-04-22T06:56:05.076Z,14.35
2023-04-22T06:58:31.678Z,14.38
2023-04-22T07:00:58.355Z,14.44
2023-04-22T07:03:26.216Z,14.55
2023-04-22T07:05:53.022Z,14.66
2023-04-22T07:08:19.828Z,14.75
2023-04-22T07:10:46.388Z,14.83
2023-04-22T07:13:12.988Z,14.93
2023-04-22T07:15:39.521Z,15.03
2023-04-22T07:18:06.248Z,15.16
2023-04-22T07:20:32.894Z,15.32
2023-04-22T07:22:59.425Z,15.52
2023-04-22T07:25:25.949Z,15.72
2023-04-22T07:27:52.536Z,15.90
2023-04-22T07:30:19.129Z,16.04
2023-04-22T07:32:48.225Z,16.20
2023-04-22T07:35:15.458Z,16.30
2023-04-22T07:37:42.104Z,16.38
2023-04-22T07:40:11.907Z,16.43
2023-04-22T07:42:40.143Z,16.46
2023-04-22T07:45:07.621Z,16.46
2023-04-22T07:47:34.473Z,16.54
2023-04-22T07:50:01.081Z,16.63
2023-04-22T07:52:27.678Z,16.78
2023-04-22T07:54:54.261Z,16.94
2023-04-22T07:57:22.553Z,17.17
2023-04-22T07:59:49.872Z,17.38
2023-04-22T08:02:16.477Z,17.54
2023-04-22T08:04:43.590Z,17.67
2023-04-22T08:07:26.924Z,17.72
2023-04-22T08:09:57.023Z,17.77
2023-04-22T08:12:23.854Z,17.70
2023-04-22T08:14:50.882Z,17.69
2023-04-22T08:17:21.700Z,17.70
2023-04-22T08:19:49.078Z,17.79
2023-04-22T08:22:16.178Z,17.79
2023-04-22T08:24:42.755Z,17.80
2023-04-22T08:27:09.360Z,17.80
2023-04-22T08:29:36.150Z,17.82
2023-04-22T08:32:02.761Z,17.89
2023-04-22T08:34:29.310Z,17.95
2023-04-22T08:36:55.897Z,18.00
2023-04-22T08:39:22.440Z,18.09
2023-04-22T08:41:50.580Z,18.25
2023-04-22T08:44:17.371Z,18.38
2023-04-22T08:46:47.002Z,18.45
2023-04-22T08:49:17.175Z,18.49
2023-04-22T08:51:44.780Z,18.64
2023-04-22T08:54:12.095Z,18.84
2023-04-22T08:56:43.863Z,18.94
2023-04-22T08:59:11.876Z,19.06
2023-04-22T09:01:41.291Z,19.27
2023-04-22T09:04:10.631Z,19.49
2023-04-22T09:06:38.856Z,19.67
2023-04-22T09:09:05.521Z,19.76
2023-04-22T09:11:33.840Z,19.84
2023-04-22T09:14:00.388Z,19.85
2023-04-22T09:16:26.998Z,19.81
2023-04-22T09:18:53.650Z,19.76
2023-04-22T09:21:20.346Z,19.60
2023-04-22T09:23:52.247Z,19.41
2023-04-22T09:26:26.470Z,19.24
2023-04-22T09:28:55.440Z,19.15
2023-04-22T09:31:24.058Z,19.07
2023-04-22T09:33:58.742Z,18.93
2023-04-22T09:36:29.338Z,18.82
2023-04-22T09:38:58.616Z,18.74
2023-04-22T09:41:41.087Z,18.65
2023-04-22T09:44:15.874Z,18.55
2023-04-22T09:46:44.087Z,18.51
2023-04-22T09:49:10.921Z,18.61
2023-04-22T09:51:41.304Z,18.74
2023-04-22T09:54:10.301Z,18.85
2023-04-22T09:56:48.373Z,18.96
2023-04-22T09:59:20.558Z,19.07
2023-04-22T10:01:47.401Z,19.19
2023-04-22T10:04:15.089Z,19.28
2023-04-22T10:06:44.054Z,19.26
2023-04-22T10:09:11.120Z,19.30
2023-04-22T10:11:38.242Z,19.38
2023-04-22T10:14:05.446Z,19.47
2023-04-22T10:16:34.780Z,19.55
2023-04-22T10:19:04.588Z,19.50
2023-04-22T10:21:32.570Z,19.26
2023-04-22T10:24:00.812Z,18.99
2023-04-22T10:26:41.400Z,18.76
2023-04-22T10:29:10.797Z,18.67
2023-04-22T10:31:40.129Z,18.47
2023-04-22T10:34:14.675Z,18.28
2023-04-22T10:36:53.195Z,18.01
2023-04-22T10:39:22.075Z,17.92
2023-04-22T10:41:58.294Z,17.88
2023-04-22T10:44:29.041Z,17.86
2023-04-22T10:46:56.763Z,17.74
2023-04-22T10:49:25.613Z,17.59
2023-04-22T10:51:54.291Z,17.44
2023-04-22T10:54:32.346Z,17.35
2023-04-22T10:57:10.882Z,17.39
2023-04-22T10:59:50.096Z,17.35
2023-04-22T11:02:18.139Z,17.43
2023-04-22T11:04:45.212Z,17.47
2023-04-22T11:07:22.758Z,17.49
2023-04-22T11:09:59.757Z,17.49
2023-04-22T11:12:35.067Z,17.54
2023-04-22T11:15:05.684Z,17.61
2023-04-22T11:17:32.878Z,17.70
2023-04-22T11:20:00.013Z,17.85
2023-04-22T11:22:27.026Z,17.98
2023-04-22T11:24:57.797Z,18.13
2023-04-22T11:27:27.661Z,18.30
2023-04-22T11:30:04.801Z,18.46
2023-04-22T11:32:32.162Z,18.61
2023-04-22T11:34:58.828Z,18.74
2023-04-22T11:37:25.577Z,18.89
2023-04-22T11:40:13.517Z,19.06
2023-04-22T11:42:39.732Z,19.22
2023-04-22T11:45:07.704Z,19.34
2023-04-22T11:47:35.339Z,19.55
2023-04-22T11:50:06.919Z,19.64
2023-04-22T11:52:45.737Z,19.67
2023-04-22T11:55:30.149Z,19.69
2023-04-22T11:57:57.899Z,19.77
2023-04-22T12:00:33.243Z,19.84
2023-04-22T12:03:15.578Z,19.93
2023-04-22T12:05:44.870Z,19.96
2023-04-22T12:08:16.602Z,19.97
2023-04-22T12:10:47.624Z,20.06
2023-04-22T12:13:31.548Z,20.01
2023-04-22T12:15:59.856Z,20.08
2023-04-22T12:18:37.484Z,20.07
2023-04-22T12:21:07.065Z,20.26
2023-04-22T12:23:48.507Z,20.47
2023-04-22T12:26:16.592Z,20.64
2023-04-22T12:28:44.152Z,20.73
2023-04-22T12:31:11.547Z,20.85
2023-04-22T12:33:38.609Z,20.89
2023-04-22T12:36:05.947Z,20.86
2023-04-22T12:38:32.827Z,20.83
2023-04-22T12:40:59.701Z,20.69
2023-04-22T12:43:26.427Z,20.51
2023-04-22T12:45:52.988Z,20.32
2023-04-22T12:48:19.645Z,20.14
2023-04-22T12:50:46.433Z,19.98
2023-04-22T12:53:13.092Z,19.83
2023-04-22T12:55:39.862Z,19.87
2023-04-22T12:58:06.499Z,20.03
2023-04-22T13:00:33.479Z,20.13
2023-04-22T13:03:00.311Z,20.37
2023-04-22T13:05:27.021Z,20.63
2023-04-22T13:08:05.723Z,20.81
2023-04-22T13:10:33.614Z,20.94
2023-04-22T13:13:10.225Z,20.91
2023-04-22T13:15:42.382Z,20.95
2023-04-22T13:18:09.084Z,20.88
2023-04-22T13:20:36.088Z,20.84
2023-04-22T13:23:04.714Z,20.78
2023-04-22T13:25:31.771Z,20.56
2023-04-22T13:27:58.327Z,20.31
2023-04-22T13:30:24.914Z,20.06
2023-04-22T13:32:52.053Z,19.97
2023-04-22T13:35:18.712Z,19.98
2023-04-22T13:37:46.322Z,19.88
2023-04-22T13:40:13.141Z,19.72
2023-04-22T13:42:39.869Z,19.46
2023-04-22T13:45:07.545Z,19.37
2023-04-22T13:47:34.196Z,19.30
2023-04-22T13:50:01.922Z,19.23
2023-04-22T13:52:29.137Z,19.14
2023-04-22T13:54:55.808Z,19.07
2023-04-22T13:57:23.372Z,18.94
2023-04-22T13:59:50.489Z,18.78
2023-04-22T14:02:17.296Z,18.63
2023-04-22T14:04:43.967Z,18.46
2023-04-22T14:07:11.255Z,18.27
2023-04-22T14:09:38.153Z,18.07
2023-04-22T14:12:06.679Z,17.81
2023-04-22T14:14:33.276Z,17.61
2023-04-22T14:17:00.165Z,17.48
2023-04-22T14:19:29.024Z,17.31
2023-04-22T14:21:56.275Z,17.21
2023-04-22T14:24:24.382Z,17.12
2023-04-22T14:26:52.535Z,17.06
2023-04-22T14:29:19.522Z,17.01
2023-04-22T14:31:46.456Z,16.99
2023-04-22T14:34:13.084Z,16.95
2023-04-22T14:36:39.616Z,16.91
2023-04-22T14:39:06.137Z,16.97
2023-04-22T14:41:32.733Z,17.02
2023-04-22T14:43:59.306Z,17.03
2023-04-22T14:46:26.004Z,17.00
2023-04-22T14:48:52.675Z,16.99
2023-04-22T14:51:19.255Z,16.98
2023-04-22T14:53:45.854Z,16.95
2023-04-22T14:56:12.634Z,16.91
2023-04-22T14:58:39.152Z,16.93
2023-04-22T15:01:07.380Z,16.97
2023-04-22T15:03:35.889Z,17.00
2023-04-22T15:06:03.199Z,17.00
2023-04-22T15:08:29.842Z,16.96
2023-04-22T15:10:59.686Z,16.95
2023-04-22T15:13:26.314Z,16.93
2023-04-22T15:15:52.991Z,16.92
2023-04-22T15:18:19.771Z,16.92
2023-04-22T15:20:46.332Z,16.86
2023-04-22T15:23:12.980Z,16.89
2023-04-22T15:25:39.759Z,16.86
2023-04-22T15:28:06.353Z,16.87
2023-04-22T15:30:32.949Z,16.91
2023-04-22T15:32:59.577Z,16.88
2023-04-22T15:35:26.202Z,16.90
2023-04-22T15:37:54.162Z,16.92
2023-04-22T15:40:20.979Z,17.01
2023-04-22T15:42:47.527Z,17.02
2023-04-22T15:45:14.099Z,17.00
2023-04-22T15:47:41.280Z,17.03
2023-04-22T15:50:09.745Z,17.08
2023-04-22T15:52:38.262Z,17.07
2023-04-22T15:55:07.844Z,17.06
2023-04-22T15:57:35.518Z,17.07
2023-04-22T16:00:11.863Z,17.06
2023-04-22T16:02:41.018Z,17.05
2023-04-22T16:05:08.140Z,17.00
2023-04-22T16:07:34.974Z,17.03
2023-04-22T16:10:02.144Z,17.07
2023-04-22T16:12:28.894Z,17.10
2023-04-22T16:14:55.452Z,17.11
2023-04-22T16:17:22.134Z,17.08
2023-04-22T16:19:49.077Z,17.12
2023-04-22T16:22:15.687Z,17.17
2023-04-22T16:24:44.184Z,17.22
2023-04-22T16:27:16.428Z,17.28
2023-04-22T16:29:43.725Z,17.33
2023-04-22T16:32:10.838Z,17.35
2023-04-22T16:34:38.390Z,17.32
2023-04-22T16:37:05.610Z,17.26
2023-04-22T16:39:32.445Z,17.23
2023-04-22T16:41:59.200Z,17.22
2023-04-22T16:44:25.834Z,17.24
2023-04-22T16:46:52.422Z,17.20
2023-04-22T16:49:18.991Z,17.09
2023-04-22T16:51:45.736Z,17.02
2023-04-22T16:54:12.398Z,16.97
2023-04-22T16:56:38.907Z,16.92
2023-04-22T16:59:05.499Z,16.87
2023-04-22T17:01:32.103Z,16.86
2023-04-22T17:03:58.977Z,16.85
2023-04-22T17:06:27.452Z,16.77
2023-04-22T17:08:54.143Z,16.68
2023-04-22T17:11:20.670Z,16.64
2023-04-22T17:13:47.184Z,16.60
2023-04-22T17:16:14.161Z,16.56
2023-04-22T17:18:40.822Z,16.51
2023-04-22T17:21:07.379Z,16.45
2023-04-22T17:23:35.721Z,16.40
2023-04-22T17:26:02.271Z,16.38
2023-04-22T17:28:28.768Z,16.36
2023-04-22T17:30:55.392Z,16.34
2023-04-22T17:33:22.074Z,16.33
2023-04-22T17:35:48.624Z,16.29
2023-04-22T17:38:15.431Z,16.23
2023-04-22T17:40:43.771Z,16.21
2023-04-22T17:43:10.594Z,16.15
2023-04-22T17:45:37.145Z,16.11
2023-04-22T17:48:03.841Z,15.93
2023-04-22T17:50:30.627Z,15.75
2023-04-22T17:52:57.269Z,15.61
2023-04-22T17:55:23.829Z,15.38
2023-04-22T17:57:50.374Z,15.11
2023-04-22T18:00:18.123Z,14.95
2023-04-22T18:02:44.817Z,14.79
2023-04-22T18:05:11.517Z,14.70
2023-04-22T18:07:38.015Z,14.70
2023-04-22T18:10:04.928Z,14.72
2023-04-22T18:12:31.546Z,14.78
2023-04-22T18:14:58.633Z,14.79
2023-04-22T18:17:25.255Z,14.84
2023-04-22T18:20:02.674Z,14.86
2023-04-22T18:22:33.001Z,14.92
2023-04-22T18:25:01.908Z,14.96
2023-04-22T18:27:28.709Z,14.97
2023-04-22T18:29:55.318Z,14.98
2023-04-22T18:32:21.923Z,15.01
2023-04-22T18:34:48.493Z,15.02
2023-04-22T18:37:15.021Z,15.03
2023-04-22T18:39:41.520Z,15.02
2023-04-22T18:42:08.115Z,15.02
2023-04-22T18:44:35.579Z,15.03
2023-04-22T18:47:02.101Z,15.00
2023-04-22T18:49:28.622Z,14.95
2023-04-22T18:51:55.198Z,14.90
2023-04-22T18:54:21.771Z,14.89
2023-04-22T18:56:48.339Z,14.86
2023-04-22T18:59:14.864Z,14.86
2023-04-22T19:01:41.602Z,14.82
2023-04-22T19:04:08.279Z,14.79
2023-04-22T19:06:35.085Z,14.74
2023-04-22T19:09:01.741Z,14.71
2023-04-22T19:11:28.449Z,14.68
2023-04-22T19:13:55.007Z,14.65
2023-04-22T19:16:23.641Z,14.63
2023-04-22T19:18:51.607Z,14.58
2023-04-22T19:21:19.799Z,14.56
2023-04-22T19:23:47.010Z,14.53
2023-04-22T19:26:13.601Z,14.53
2023-04-22T19:28:46.940Z,14.48
2023-04-22T19:31:14.365Z,14.45
2023-04-22T19:33:41.130Z,14.43
2023-04-22T19:36:07.722Z,14.41
2023-04-22T19:38:34.954Z,14.37
2023-04-22T19:41:01.813Z,14.35
2023-04-22T19:43:28.413Z,14.31
2023-04-22T19:45:55.067Z,14.25
2023-04-22T19:48:22.028Z,14.25
2023-04-22T19:50:49.291Z,14.27
2023-04-22T19:53:17.865Z,14.31
2023-04-22T19:55:45.200Z,14.30
2023-04-22T19:58:12.481Z,14.25
2023-04-22T20:00:39.781Z,14.24
2023-04-22T20:03:07.236Z,14.20
2023-04-22T20:05:34.212Z,14.17
2023-04-22T20:08:01.890Z,14.12
2023-04-22T20:10:29.121Z,14.06
2023-04-22T20:12:56.097Z,14.02
2023-04-22T20:15:23.099Z,14.04
2023-04-22T20:17:50.299Z,14.01
2023-04-22T20:20:17.818Z,13.98
2023-04-22T20:22:45.989Z,13.95
2023-04-22T20:25:14.994Z,13.97
2023-04-22T20:27:41.970Z,13.98
2023-04-22T20:30:09.950Z,14.01
2023-04-22T20:32:36.969Z,14.01
2023-04-22T20:35:04.614Z,14.00
2023-04-22T20:37:31.931Z,13.94
2023-04-22T20:40:01.893Z,13.89
2023-04-22T20:42:29.017Z,13.91
2023-04-22T20:44:56.227Z,13.93
2023-04-22T20:47:22.740Z,13.92
2023-04-22T20:49:49.348Z,13.89
2023-04-22T20:52:16.435Z,13.84
2023-04-22T20:54:43.458Z,13.84
2023-04-22T20:57:10.181Z,13.82
2023-04-22T20:59:36.980Z,13.80
2023-04-22T21:02:07.194Z,13.81
2023-04-22T21:04:34.668Z,13.78
2023-04-22T21:07:04.058Z,13.79
2023-04-22T21:09:32.704Z,13.79
2023-04-22T21:11:59.655Z,13.81
2023-04-22T21:14:26.948Z,13.83
2023-04-22T21:17:01.500Z,13.82
2023-04-22T21:19:34.642Z,13.81
2023-04-22T21:22:06.218Z,13.81
2023-04-22T21:24:34.978Z,13.76
2023-04-22T21:27:02.035Z,13.75
2023-04-22T21:29:29.076Z,13.74
2023-04-22T21:32:08.075Z,13.71
2023-04-22T21:34:35.870Z,13.69
2023-04-22T21:37:02.707Z,13.70
2023-04-22T21:39:29.709Z,13.72
2023-04-22T21:41:56.716Z,13.74
2023-04-22T21:44:23.272Z,13.75
2023-04-22T21:46:50.054Z,13.72
2023-04-22T21:49:16.616Z,13.71
2023-04-22T21:51:43.191Z,13.70
2023-04-22T21:54:09.714Z,13.69
2023-04-22T21:56:36.393Z,13.67
2023-04-22T21:59:02.983Z,13.63
2023-04-22T22:01:29.593Z,13.61
2023-04-22T22:03:56.398Z,13.64
2023-04-22T22:06:23.006Z,13.67
2023-04-22T22:08:49.640Z,13.68
2023-04-22T22:11:27.458Z,13.68
2023-04-22T22:13:56.781Z,13.71
2023-04-22T22:16:23.453Z,13.69
2023-04-22T22:18:50.618Z,13.71
2023-04-22T22:21:17.589Z,13.69
2023-04-22T22:23:44.127Z,13.64
2023-04-22T22:26:11.115Z,13.62
2023-04-22T22:28:38.045Z,13.63
2023-04-22T22:31:04.675Z,13.62
2023-04-22T22:33:31.277Z,13.60
2023-04-22T22:35:57.867Z,13.60
2023-04-22T22:38:24.531Z,13.59
2023-04-22T22:40:51.176Z,13.54
2023-04-22T22:43:17.733Z,13.50
2023-04-22T22:45:44.487Z,13.48
2023-04-22T22:48:11.302Z,13.43
2023-04-22T22:50:37.922Z,13.40
2023-04-22T22:53:04.549Z,13.33
2023-04-22T22:55:31.104Z,13.32
2023-04-22T22:57:57.919Z,13.31
2023-04-22T23:00:24.515Z,13.29
2023-04-22T23:02:51.264Z,13.27
2023-04-22T23:05:17.923Z,13.25
2023-04-22T23:07:44.584Z,13.26
2023-04-22T23:10:11.209Z,13.24
2023-04-22T23:12:37.873Z,13.23
2023-04-22T23:15:05.561Z,13.23
2023-04-22T23:17:32.299Z,13.24
2023-04-22T23:20:01.281Z,13.27
2023-04-22T23:22:29.786Z,13.25
2023-04-22T23:24:56.833Z,13.28
2023-04-22T23:27:23.563Z,13.28
2023-04-22T23:29:50.419Z,13.31
2023-04-22T23:32:19.552Z,13.35
2023-04-22T23:34:50.411Z,13.37
2023-04-22T23:37:19.208Z,13.39
2023-04-22T23:39:45.948Z,13.38
2023-04-22T23:42:12.575Z,13.40
2023-04-22T23:44:39.300Z,13.44
2023-04-22T23:47:06.420Z,13.43
2023-04-22T23:49:32.993Z,13.42
2023-04-22T23:51:59.614Z,13.43
2023-04-22T23:54:26.858Z,13.44
2023-04-22T23:56:53.807Z,13.44
2023-04-22T23:59:20.691Z,13.46
